GB-0265 weather

Public forecast

Using degrees Celsius for public forecast. Weather courtesy of forecast.io.

Closest aviation weather report (METAR) to Lower Withial Fram Airstrip

Closest report is RNAS Yeovilton, 7.1 nm (13.2 km) SSW. Retrieved 2020/08/11 00:50 UTC (24 minutes ago):

EGDY 110050Z AUTO 28001KT 8000 BR NCD 18/17 Q1014

Closest aviation forecast (TAF) to Lower Withial Fram Airstrip

Forecast is more than 12 hours old.

Closest forecast is RNAS Yeovilton, 7.1 nm (13.2 km) SSW. Retrieved 2020/07/01 18:15 UTC (1 month ago):

TAF TAF EGDY 010110Z 3018/0103 CNL